Hauptseite
METAR-TAF:

METAR-TAF

Flughäfen :

Antananarivo, Madagaskar

Flughafen Antananarivo

Breite: 18-48S, Länge: 047-29E, Höhe: 1279 m

Beobachtung

Neuester Wetterbericht von vor 22 Minuten, um 23:30 UTC
Wind 4 kt aus Süd/Südost
Temperatur 15°C
Luftfeuchtigkeit 94%
Luftdruck 1016 hPa
Sichtweite 10 km oder mehr
Leicht bewölkt in der Höhe von 1700 ft

METAR: FMMI 172330Z 16004KT 9999 FEW017 15/14 Q1016 NOSIG

Zeit: 02:52 (23:52 UTC)

Prognose

Neuester Wetterbericht von vor 52 Minuten, um 23:00 UTC
Gültige Prognose vom 18 um 00 UTC bis 19 um 06 UTC
Wind 10 kt aus Südost
Sichtweite 10 km oder mehr
Aufgelockert bewölkt in der Höhe von 1700 ft
Aufgelockert bewölkt in der Höhe von 2000 ft

TAF: FMMI 172300Z 1800/1906 14010KT 9999 SCT017 SCT020

Wetterbeobachtungen und Prognosen von mehr als 4000 Flughäfen (METAR und TAF Bericht).

Die verfügbaren Stationen werden durch gelbe und rote Markierungen auf der Karte dargestellt.

Führen Sie die Maus auf sie, um den Namen der Station zu sehen.

Darauf klicken, um die Beobachtung von Wetterbeobachtungen und Prognosen zu sehen.

Um die Karte zu ändern : klicken Sie auf den grünen Tasten mit einem schwarzen Kreuz Zum Vergrößern, auf den grünen Button mit einem Gedankenstrich zu verkleinern, oder auf die grünen Pfeile für benachbarte Karten.


METAR-TAF: